Time;durP1;ratioP1;P1;durP2;ratioP2;P2;SDS_P1;SDS_P2;PMS_P1;PMS_P2;Temp;Humidity;BMP_temperature;BMP_pressure;BME280_temperature;BME280_humidity;BME280_pressure;Samples;Min_cycle;Max_cycle;Signal;HPM_P1;HPM_P2
2023/05/15 00:00:46;;;;;;;3.60;3.30;;;;;;;10.43;100.00;95759.94;5052639;28;20070;-71
2023/05/15 00:03:12;;;;;;;4.10;3.75;;;;;;;10.41;100.00;95756.63;5053686;28;20100;-71
2023/05/15 00:05:38;;;;;;;3.85;3.55;;;;;;;10.40;100.00;95751.44;5055719;28;20074;-71
2023/05/15 00:08:04;;;;;;;4.45;3.42;;;;;;;10.40;100.00;95754.09;5055349;28;20047;-71
2023/05/15 00:10:29;;;;;;;3.78;3.53;;;;;;;10.36;100.00;95753.50;5056670;28;20107;-71
2023/05/15 00:12:55;;;;;;;4.68;3.58;;;;;;;10.37;100.00;95751.72;5053059;28;20029;-71
2023/05/15 00:15:20;;;;;;;4.18;3.60;;;;;;;10.38;100.00;95751.56;5053066;28;20092;-71
2023/05/15 00:17:46;;;;;;;7.05;5.28;;;;;;;10.38;100.00;95766.56;5054340;28;20035;-71
2023/05/15 00:20:11;;;;;;;9.00;7.20;;;;;;;10.35;100.00;95758.94;5069431;28;20021;-71
2023/05/15 00:22:36;;;;;;;4.85;4.53;;;;;;;10.33;100.00;95756.44;5051369;28;20031;-71
2023/05/15 00:25:02;;;;;;;3.90;3.20;;;;;;;10.31;100.00;95753.97;5050160;28;20123;-71
2023/05/15 00:27:27;;;;;;;3.88;3.53;;;;;;;10.34;100.00;95762.53;5049171;28;20021;-71
2023/05/15 00:29:53;;;;;;;6.55;5.93;;;;;;;10.32;100.00;95755.63;5054990;28;20080;-71
2023/05/15 00:32:18;;;;;;;5.22;4.47;;;;;;;10.30;100.00;95748.81;5054338;28;20032;-71
2023/05/15 00:34:44;;;;;;;4.00;3.63;;;;;;;10.28;100.00;95754.25;5051417;28;20033;-71
2023/05/15 00:37:09;;;;;;;4.50;4.10;;;;;;;10.29;100.00;95753.25;5056039;28;20032;-71
2023/05/15 00:39:35;;;;;;;4.38;3.63;;;;;;;10.29;100.00;95755.91;5051162;28;20481;-70
2023/05/15 00:42:02;;;;;;;6.88;3.60;;;;;;;10.28;100.00;95759.50;5051809;28;20078;-71
2023/05/15 00:44:28;;;;;;;6.03;4.13;;;;;;;10.27;100.00;95757.00;5051776;28;20021;-71
2023/05/15 00:46:56;;;;;;;5.00;4.60;;;;;;;10.22;100.00;95759.22;5047591;28;20021;-70
2023/05/15 00:49:22;;;;;;;3.78;3.47;;;;;;;10.18;100.00;95751.59;5051223;28;20032;-71
2023/05/15 00:51:49;;;;;;;4.78;3.50;;;;;;;10.16;100.00;95765.84;5054985;28;20013;-71
2023/05/15 00:54:15;;;;;;;3.40;3.10;;;;;;;10.13;100.00;95760.88;5052996;28;20025;-71
2023/05/15 00:56:43;;;;;;;3.33;3.00;;;;;;;10.13;100.00;95755.59;5054877;28;20040;-71
2023/05/15 00:59:09;;;;;;;3.40;3.10;;;;;;;10.07;100.00;95750.91;5056314;28;20033;-71
2023/05/15 01:01:35;;;;;;;4.20;3.05;;;;;;;10.10;100.00;95750.63;5052230;28;20052;-71
2023/05/15 01:04:01;;;;;;;5.95;3.25;;;;;;;10.13;100.00;95747.72;5046613;28;20030;-71
2023/05/15 01:06:29;;;;;;;3.90;3.40;;;;;;;10.15;100.00;95751.84;5053429;28;20096;-71
2023/05/15 01:08:56;;;;;;;4.82;3.50;;;;;;;10.20;100.00;95761.97;5050713;28;20018;-71
2023/05/15 01:11:25;;;;;;;3.20;3.00;;;;;;;10.25;100.00;95751.84;5054859;28;20017;-71
2023/05/15 01:13:51;;;;;;;3.97;3.47;;;;;;;10.22;100.00;95743.44;5054343;28;20428;-71
2023/05/15 01:16:16;;;;;;;7.28;3.30;;;;;;;10.16;100.00;95748.25;5053079;28;20070;-71
2023/05/15 01:18:41;;;;;;;6.07;3.38;;;;;;;10.18;100.00;95745.50;5047448;28;20134;-71
2023/05/15 01:21:34;;;;;;;3.20;3.00;;;;;;;10.12;100.00;95749.50;5063533;28;20116;-71
2023/05/15 01:24:41;;;;;;;3.10;2.90;;;;;;;10.06;100.00;95746.59;5048226;28;20029;-71
2023/05/15 01:27:17;;;;;;;3.10;3.00;;;;;;;10.01;100.00;95749.66;5043479;28;20029;-71
2023/05/15 01:30:01;;;;;;;3.17;2.97;;;;;;;10.00;100.00;95750.63;5052599;28;20041;-71
2023/05/15 01:32:35;;;;;;;3.03;2.78;;;;;;;9.99;100.00;95747.13;5051331;28;20018;-71
2023/05/15 01:35:12;;;;;;;3.10;2.90;;;;;;;9.96;100.00;95739.53;5052423;28;20029;-71
2023/05/15 01:37:44;;;;;;;2.85;2.65;;;;;;;9.92;100.00;95738.16;5047818;28;20111;-71
2023/05/15 01:40:13;;;;;;;5.50;3.28;;;;;;;9.96;100.00;95731.63;5068917;28;20152;-71
2023/05/15 01:42:49;;;;;;;4.43;3.45;;;;;;;10.01;100.00;95737.31;5051503;28;20032;-71
2023/05/15 01:45:16;;;;;;;3.70;3.50;;;;;;;10.04;100.00;95739.66;5047891;28;20029;-71
2023/05/15 01:47:45;;;;;;;2.90;2.70;;;;;;;10.03;100.00;95743.25;5046860;28;20079;-71
2023/05/15 01:50:13;;;;;;;4.35;2.97;;;;;;;10.01;100.00;95741.75;5048805;28;20449;-71
2023/05/15 01:52:42;;;;;;;3.75;3.10;;;;;;;9.99;100.00;95749.78;5052914;28;20044;-71
2023/05/15 01:55:08;;;;;;;3.33;3.00;;;;;;;9.98;100.00;95744.66;5054807;28;20040;-70
2023/05/15 01:57:35;;;;;;;3.47;2.78;;;;;;;9.95;100.00;95737.06;5054469;28;20509;-71
2023/05/15 02:00:01;;;;;;;2.80;2.70;;;;;;;9.92;100.00;95738.16;5048681;28;20029;-71
2023/05/15 02:02:29;;;;;;;3.33;2.90;;;;;;;9.88;100.00;95736.75;5054645;28;20029;-71
2023/05/15 02:04:55;;;;;;;4.00;3.00;;;;;;;9.93;100.00;95738.97;5049634;28;20405;-71
2023/05/15 02:07:22;;;;;;;4.05;2.83;;;;;;;9.95;100.00;95743.13;5053205;28;20053;-71
2023/05/15 02:09:50;;;;;;;5.20;2.90;;;;;;;9.92;100.00;95738.16;5056685;28;20025;-71
2023/05/15 02:12:16;;;;;;;3.58;3.10;;;;;;;9.87;100.00;95735.09;5052729;28;20081;-71
2023/05/15 02:14:42;;;;;;;6.47;3.03;;;;;;;9.89;100.00;95743.69;5049140;28;20144;-70
2023/05/15 02:17:08;;;;;;;5.15;3.20;;;;;;;9.89;100.00;95738.41;5052695;28;20021;-70
2023/05/15 02:19:33;;;;;;;3.42;2.75;;;;;;;9.90;100.00;95737.47;5049824;28;20028;-70
2023/05/15 02:21:59;;;;;;;4.43;2.92;;;;;;;9.84;100.00;95728.31;5052744;28;20029;-70
2023/05/15 02:24:24;;;;;;;4.20;3.20;;;;;;;9.81;100.00;95731.22;5053306;28;20037;-71
2023/05/15 02:27:04;;;;;;;3.65;3.33;;;;;;;9.79;100.00;95727.88;5048760;28;20093;-71
2023/05/15 02:29:35;;;;;;;3.25;3.05;;;;;;;9.83;100.00;95728.44;5066493;28;20032;-70
2023/05/15 02:32:39;;;;;;;3.95;2.72;;;;;;;9.84;100.00;95730.13;5053609;28;20411;-70
2023/05/15 02:35:31;;;;;;;3.50;3.30;;;;;;;9.80;100.00;95729.56;5046004;28;20465;-71
2023/05/15 02:38:00;;;;;;;3.03;2.90;;;;;;;9.81;100.00;95720.69;5050701;28;20025;-70
2023/05/15 02:40:27;;;;;;;3.20;3.10;;;;;;;9.82;100.00;95727.63;5043550;28;20190;-71
2023/05/15 02:42:54;;;;;;;3.10;2.90;;;;;;;9.84;100.00;95730.94;5052502;28;20021;-71
2023/05/15 02:45:21;;;;;;;3.20;3.00;;;;;;;9.84;100.00;95738.81;5047735;28;20024;-71
2023/05/15 02:47:50;;;;;;;3.45;3.15;;;;;;;9.79;100.00;95727.03;5054095;28;20350;-71
2023/05/15 02:50:16;;;;;;;3.10;2.90;;;;;;;9.77;100.00;95723.72;5050590;28;20025;-70
2023/05/15 02:52:42;;;;;;;3.47;3.20;;;;;;;9.74;100.00;95720.41;5049904;28;20066;-70
2023/05/15 02:55:08;;;;;;;3.50;3.20;;;;;;;9.77;100.00;95723.72;5067659;28;20037;-72
2023/05/15 02:57:34;;;;;;;3.50;3.30;;;;;;;9.75;100.00;95722.06;5046220;28;20027;-71
2023/05/15 02:59:59;;;;;;;3.40;3.10;;;;;;;9.76;100.00;95722.91;5050020;28;20053;-71
2023/05/15 03:02:25;;;;;;;3.20;2.90;;;;;;;9.73;100.00;95724.00;5061055;28;20053;-71
2023/05/15 03:04:50;;;;;;;3.88;3.67;;;;;;;9.73;100.00;95724.00;5049662;28;20025;-71
2023/05/15 03:07:16;;;;;;;4.63;4.22;;;;;;;9.68;100.00;95715.69;5052559;28;20025;-71
2023/05/15 03:09:41;;;;;;;6.28;3.40;;;;;;;9.71;100.00;95723.31;5043574;28;20470;-71
2023/05/15 03:12:07;;;;;;;3.85;3.40;;;;;;;9.78;100.00;95720.13;5048744;28;20041;-71
2023/05/15 03:14:33;;;;;;;3.22;3.13;;;;;;;9.81;100.00;95720.69;5051279;28;20043;-72
2023/05/15 03:16:59;;;;;;;3.88;3.45;;;;;;;9.81;100.00;95720.69;5050372;28;20028;-70
2023/05/15 03:19:24;;;;;;;3.90;3.60;;;;;;;9.81;100.00;95719.84;5048736;28;20025;-71
2023/05/15 03:21:49;;;;;;;4.72;2.95;;;;;;;9.79;100.00;95724.41;5051531;28;20022;-71
2023/05/15 03:24:15;;;;;;;4.47;3.72;;;;;;;9.75;100.00;95726.50;5053350;28;20072;-71
2023/05/15 03:26:41;;;;;;;3.90;3.60;;;;;;;9.71;100.00;95710.16;5048445;28;20494;-71
2023/05/15 03:29:06;;;;;;;4.30;3.90;;;;;;;9.70;100.00;95712.91;5050386;28;20053;-71
2023/05/15 03:31:32;;;;;;;4.32;3.35;;;;;;;9.71;100.00;95715.41;5053097;28;20467;-71
2023/05/15 03:33:57;;;;;;;4.15;3.67;;;;;;;9.71;100.00;95712.78;5051276;28;20017;-71
2023/05/15 03:36:23;;;;;;;3.38;3.17;;;;;;;9.72;100.00;95708.34;5045614;28;20056;-71
2023/05/15 03:38:48;;;;;;;3.90;3.60;;;;;;;9.69;100.00;95708.63;5049444;28;20055;-71
2023/05/15 03:41:14;;;;;;;3.90;3.60;;;;;;;9.67;100.00;95714.03;5054520;28;20074;-71
2023/05/15 03:43:40;;;;;;;3.95;3.75;;;;;;;9.62;100.00;95711.00;5053375;28;20025;-71
2023/05/15 03:46:05;;;;;;;3.67;3.38;;;;;;;9.62;100.00;95703.09;5051234;28;20040;-71
2023/05/15 03:48:30;;;;;;;3.42;3.30;;;;;;;9.62;100.00;95715.41;5054170;28;20112;-71
2023/05/15 03:50:56;;;;;;;3.92;3.63;;;;;;;9.61;100.00;95709.28;5054388;28;20508;-71
2023/05/15 03:53:22;;;;;;;3.78;3.58;;;;;;;9.60;100.00;95707.63;5070207;28;20052;-71
2023/05/15 03:55:47;;;;;;;5.35;3.65;;;;;;;9.56;100.00;95706.25;5054314;28;20025;-71
2023/05/15 03:58:13;;;;;;;4.28;3.90;;;;;;;9.54;100.00;95714.28;5054688;28;20037;-71
2023/05/15 04:00:38;;;;;;;4.30;4.00;;;;;;;9.50;100.00;95717.31;5052812;28;20039;-71
2023/05/15 04:03:03;;;;;;;4.57;4.10;;;;;;;9.48;100.00;95706.09;5054593;28;20107;-71
2023/05/15 04:05:29;;;;;;;4.40;4.10;;;;;;;9.48;100.00;95714.00;5054211;28;20063;-71
2023/05/15 04:07:54;;;;;;;4.38;4.03;;;;;;;9.48;100.00;95714.00;5063135;28;20029;-71
2023/05/15 04:10:20;;;;;;;5.45;3.75;;;;;;;9.44;100.00;95711.63;5070296;28;20116;-71
2023/05/15 04:12:46;;;;;;;4.35;3.90;;;;;;;9.39;100.00;95713.81;5053661;28;20025;-72
2023/05/15 04:15:22;;;;;;;4.78;4.38;;;;;;;9.34;100.00;95717.81;5052862;28;20149;-71
2023/05/15 04:17:50;;;;;;;5.40;4.30;;;;;;;9.31;100.00;95714.50;5054819;28;20013;-71
2023/05/15 04:20:17;;;;;;;4.60;4.20;;;;;;;9.30;100.00;95714.63;5054492;28;20032;-71
2023/05/15 04:22:43;;;;;;;4.25;3.95;;;;;;;9.32;100.00;95720.56;5050710;28;20059;-71
2023/05/15 04:25:10;;;;;;;4.50;4.20;;;;;;;9.30;100.00;95719.88;5053663;28;20549;-71
2023/05/15 04:27:37;;;;;;;4.80;4.30;;;;;;;9.28;100.00;95720.03;5054253;28;20029;-71
2023/05/15 04:30:04;;;;;;;4.57;4.28;;;;;;;9.26;100.00;95726.38;5066521;28;20029;-74
2023/05/15 04:32:30;;;;;;;4.47;4.10;;;;;;;9.30;100.00;95722.50;5044761;28;20116;-71
2023/05/15 04:34:55;;;;;;;4.43;4.13;;;;;;;9.37;100.00;95726.25;5042256;28;20049;-71
2023/05/15 04:37:21;;;;;;;4.90;4.50;;;;;;;9.38;100.00;95721.84;5052253;28;20025;-71
2023/05/15 04:39:46;;;;;;;3.92;3.72;;;;;;;9.41;100.00;95727.69;5054084;28;20506;-71
2023/05/15 04:42:12;;;;;;;3.80;3.60;;;;;;;9.41;100.00;95725.03;5055262;28;20067;-71
2023/05/15 04:44:37;;;;;;;3.85;3.65;;;;;;;9.48;100.00;95719.25;5056744;28;20136;-71
2023/05/15 04:47:03;;;;;;;5.45;3.92;;;;;;;9.50;100.00;95730.44;5053231;28;20043;-71
2023/05/15 04:49:29;;;;;;;4.05;3.35;;;;;;;9.48;100.00;95725.31;5057004;28;20029;-71
2023/05/15 04:51:54;;;;;;;4.13;3.92;;;;;;;9.49;100.00;95726.16;5058066;28;20025;-71
2023/05/15 04:54:20;;;;;;;4.03;3.72;;;;;;;9.53;100.00;95725.75;5056439;28;20025;-71
2023/05/15 04:56:45;;;;;;;4.25;3.90;;;;;;;9.59;100.00;95711.22;5057468;28;20021;-71
2023/05/15 04:59:12;;;;;;;3.97;3.70;;;;;;;9.64;100.00;95714.31;5056070;28;20409;-71
2023/05/15 05:01:37;;;;;;;4.15;3.95;;;;;;;9.64;100.00;95711.69;5057292;28;20089;-71
2023/05/15 05:04:03;;;;;;;4.75;4.35;;;;;;;9.72;100.00;95717.06;5063776;28;20107;-72
2023/05/15 05:06:28;;;;;;;3.97;3.67;;;;;;;9.76;100.00;95712.38;5056450;28;20025;-71
2023/05/15 05:08:54;;;;;;;4.13;3.80;;;;;;;9.79;100.00;95724.41;5055645;28;20063;-71
2023/05/15 05:11:21;;;;;;;4.22;3.83;;;;;;;9.81;100.00;95719.84;5056465;28;20017;-71
2023/05/15 05:13:48;;;;;;;8.30;4.30;;;;;;;9.86;100.00;95713.22;5056346;28;20023;-71
2023/05/15 05:16:13;;;;;;;3.90;3.60;;;;;;;9.91;100.00;95714.59;5057624;28;20497;-72
2023/05/15 05:18:38;;;;;;;3.92;3.50;;;;;;;9.91;100.00;95712.81;5055807;28;20306;-71
2023/05/15 05:21:04;;;;;;;3.95;3.65;;;;;;;9.94;100.00;95709.91;5057384;28;20025;-71
2023/05/15 05:23:30;;;;;;;3.55;3.40;;;;;;;9.97;100.00;95704.38;5057253;28;20021;-71
2023/05/15 05:25:56;;;;;;;4.20;3.90;;;;;;;10.00;100.00;95700.66;5055489;28;20048;-71
2023/05/15 05:28:21;;;;;;;3.88;3.67;;;;;;;9.99;100.00;95697.16;5056866;28;20082;-71
2023/05/15 05:30:48;;;;;;;3.03;2.90;;;;;;;10.03;100.00;95692.47;5056951;28;20017;-72
2023/05/15 05:33:14;;;;;;;4.07;3.78;;;;;;;10.07;100.00;95693.03;5056986;28;20028;-71
2023/05/15 05:35:39;;;;;;;4.00;3.63;;;;;;;10.14;100.00;95688.88;5056310;28;20078;-71
2023/05/15 05:38:07;;;;;;;4.63;3.80;;;;;;;10.13;100.00;95684.56;5056851;28;20055;-72
2023/05/15 05:40:33;;;;;;;3.83;3.60;;;;;;;10.16;100.00;95682.47;5072009;28;20079;-71
2023/05/15 05:43:02;;;;;;;4.47;2.97;;;;;;;10.23;100.00;95688.03;5053083;28;20030;-71
2023/05/15 05:45:28;;;;;;;3.58;3.13;;;;;;;10.24;100.00;95684.41;5052519;28;20022;-72
2023/05/15 05:47:57;;;;;;;4.20;3.85;;;;;;;10.27;100.00;95684.13;5055005;28;20498;-72
2023/05/15 05:50:22;;;;;;;7.68;4.50;;;;;;;10.30;100.00;95681.25;5057349;28;20021;-72
2023/05/15 05:52:48;;;;;;;4.10;3.72;;;;;;;10.35;100.00;95674.72;5055940;28;20016;-71
2023/05/15 05:55:13;;;;;;;4.65;3.33;;;;;;;10.31;100.00;95669.75;5052575;28;20037;-72
2023/05/15 05:57:39;;;;;;;3.00;2.80;;;;;;;10.34;100.00;95662.53;5053556;28;20029;-73
2023/05/15 06:00:09;;;;;;;3.20;3.03;;;;;;;10.38;100.00;95667.34;5060178;28;20387;-69
2023/05/15 06:02:36;;;;;;;6.82;3.30;;;;;;;10.44;100.00;95658.09;5047187;28;20033;-74
2023/05/15 06:05:01;;;;;;;4.47;4.28;;;;;;;10.47;100.00;95663.09;5050277;28;20036;-73
2023/05/15 06:07:27;;;;;;;4.40;3.95;;;;;;;10.49;100.00;95663.78;5056935;28;20025;-74
2023/05/15 06:09:52;;;;;;;3.38;3.17;;;;;;;10.60;100.00;95653.09;5056278;28;20025;-75
2023/05/15 06:12:18;;;;;;;4.05;3.80;;;;;;;10.57;100.00;95642.84;5054104;28;20070;-74
2023/05/15 06:14:43;;;;;;;3.85;3.65;;;;;;;10.59;100.00;95635.63;5055794;28;20021;-73
2023/05/15 06:17:09;;;;;;;3.85;3.63;;;;;;;10.59;100.00;95646.16;5051096;28;20390;-72
2023/05/15 06:19:34;;;;;;;3.22;3.05;;;;;;;10.59;100.00;95650.59;5054239;28;20079;-73
2023/05/15 06:22:00;;;;;;;3.72;3.35;;;;;;;10.60;100.00;95645.19;5054961;28;20119;-75
2023/05/15 06:24:25;;;;;;;3.38;3.08;;;;;;;10.65;100.00;95643.94;5056371;28;20507;-73
2023/05/15 06:26:51;;;;;;;3.28;3.08;;;;;;;10.66;100.00;95648.22;5055794;28;20103;-74
2023/05/15 06:29:17;;;;;;;3.20;3.05;;;;;;;10.67;100.00;95634.91;5055074;28;20064;-74
2023/05/15 06:31:42;;;;;;;3.42;3.17;;;;;;;10.72;100.00;95643.22;5056317;28;20460;-73
2023/05/15 06:34:07;;;;;;;3.13;2.92;;;;;;;10.76;100.00;95646.41;5052712;28;20025;-73
2023/05/15 06:36:33;;;;;;;3.60;3.40;;;;;;;10.80;100.00;95629.31;5054753;28;20036;-74
2023/05/15 06:38:58;;;;;;;5.22;4.38;;;;;;;10.89;100.00;95633.72;5051432;28;20041;-73
2023/05/15 06:41:24;;;;;;;6.00;5.55;;;;;;;10.96;100.00;95630.50;5055705;28;20397;-73
2023/05/15 06:43:49;;;;;;;6.70;6.18;;;;;;;11.01;100.00;95638.81;5053701;28;20389;-74
2023/05/15 06:46:17;;;;;;;8.30;7.70;;;;;;;11.11;100.00;95625.59;5070683;28;20497;-73
2023/05/15 06:48:43;;;;;;;5.40;4.90;;;;;;;11.12;100.00;95629.88;5055195;28;20116;-74
2023/05/15 06:51:09;;;;;;;4.80;4.05;;;;;;;11.15;100.00;95632.22;5055869;28;20052;-73
2023/05/15 06:53:34;;;;;;;4.22;3.65;;;;;;;11.17;100.00;95623.19;5053943;28;20085;-73
2023/05/15 06:56:00;;;;;;;4.32;4.03;;;;;;;11.18;100.00;95626.66;5054200;28;20020;-73
2023/05/15 06:58:26;;;;;;;5.45;3.67;;;;;;;11.27;100.00;95632.84;5054684;28;20029;-73
2023/05/15 07:00:53;;;;;;;5.35;3.15;;;;;;;11.37;100.00;95628.31;5048307;28;20493;-73
2023/05/15 07:03:19;;;;;;;3.65;3.35;;;;;;;11.46;100.00;95621.34;5055096;28;20090;-73
2023/05/15 07:05:44;;;;;;;5.38;4.03;;;;;;;11.56;100.00;95627.38;5054090;28;20469;-73
2023/05/15 07:08:10;;;;;;;4.38;4.00;;;;;;;11.65;100.00;95624.81;5070687;28;20036;-73
2023/05/15 07:10:35;;;;;;;4.18;3.40;;;;;;;11.66;100.00;95622.03;5070910;28;20021;-73
2023/05/15 07:13:00;;;;;;;4.97;3.83;;;;;;;11.63;100.00;95622.34;5054650;28;20033;-73
2023/05/15 07:15:26;;;;;;;4.13;3.83;;;;;;;11.64;100.00;95620.53;5048002;28;20025;-72
2023/05/15 07:17:51;;;;;;;4.70;4.30;;;;;;;11.63;100.00;95618.88;5053293;28;20123;-73
2023/05/15 07:20:17;;;;;;;3.97;3.78;;;;;;;11.63;100.00;95630.25;5053035;28;20035;-73
2023/05/15 07:22:42;;;;;;;4.13;3.80;;;;;;;11.68;100.00;95620.09;5054573;28;20036;-72
2023/05/15 07:25:08;;;;;;;3.90;3.60;;;;;;;11.75;100.00;95617.69;5054378;28;20481;-74
2023/05/15 07:27:34;;;;;;;4.13;3.58;;;;;;;11.79;100.00;95620.81;5055474;28;20029;-73
2023/05/15 07:30:00;;;;;;;4.55;4.10;;;;;;;11.93;100.00;95616.81;5054444;28;20402;-73
2023/05/15 07:32:26;;;;;;;4.55;4.15;;;;;;;12.01;100.00;95617.75;5037268;28;20024;-73
2023/05/15 07:34:52;;;;;;;4.57;3.90;;;;;;;12.21;100.00;95616.75;5054763;28;20021;-73
2023/05/15 07:37:17;;;;;;;8.25;5.22;;;;;;;12.38;100.00;95615.06;5053799;28;20539;-73
2023/05/15 07:39:42;;;;;;;7.47;6.47;;;;;;;12.54;100.00;95615.16;5053874;28;20052;-73
2023/05/15 07:42:08;;;;;;;4.90;3.90;;;;;;;12.66;100.00;95610.44;5054303;28;20075;-74
2023/05/15 07:44:33;;;;;;;4.65;3.63;;;;;;;12.77;100.00;95609.34;5054665;28;20507;-73
2023/05/15 07:46:59;;;;;;;5.38;4.90;;;;;;;12.68;100.00;95597.91;5045700;28;20100;-73
2023/05/15 07:49:24;;;;;;;4.40;4.10;;;;;;;12.59;100.00;95601.47;5053179;28;20027;-74
2023/05/15 07:51:49;;;;;;;5.05;4.75;;;;;;;12.62;100.00;95587.97;5062155;28;20013;-73
2023/05/15 07:54:15;;;;;;;5.15;4.70;;;;;;;12.61;100.00;95584.50;5057641;28;20017;-73
2023/05/15 07:56:43;;;;;;;3.90;3.25;;;;;;;12.57;100.00;95583.16;5054206;28;20035;-73
2023/05/15 07:59:09;;;;;;;3.20;3.03;;;;;;;12.66;100.00;95581.38;5052294;28;20067;-74
2023/05/15 08:01:34;;;;;;;3.33;3.08;;;;;;;12.91;100.00;95576.19;5052221;28;20089;-72
2023/05/15 08:03:59;;;;;;;3.95;3.75;;;;;;;12.97;100.00;95575.56;5054701;28;20663;-74
2023/05/15 08:06:25;;;;;;;3.33;3.13;;;;;;;12.97;100.00;95570.28;5054125;28;20032;-73
2023/05/15 08:08:50;;;;;;;5.70;5.20;;;;;;;13.08;100.00;95568.34;5053237;28;20485;-74
2023/05/15 08:11:17;;;;;;;6.55;5.85;;;;;;;13.24;100.00;95562.25;5054569;28;20031;-73
2023/05/15 08:13:42;;;;;;;7.68;6.43;;;;;;;13.39;100.00;95565.09;5053054;28;20017;-73
2023/05/15 08:16:08;;;;;;;5.30;4.82;;;;;;;13.25;100.00;95564.72;5055445;28;20027;-73
2023/05/15 08:18:33;;;;;;;6.50;5.90;;;;;;;13.06;100.00;95554.47;5052458;28;20017;-73
2023/05/15 08:20:58;;;;;;;9.63;7.22;;;;;;;13.03;100.00;95555.59;5058592;28;20025;-75
2023/05/15 08:23:24;;;;;;;6.00;5.53;;;;;;;13.12;100.00;95559.91;5057529;28;20505;-73
2023/05/15 08:25:49;;;;;;;7.03;6.28;;;;;;;13.09;100.00;95554.13;5057057;28;20053;-75
2023/05/15 08:28:15;;;;;;;6.03;4.50;;;;;;;13.06;100.00;95546.53;5058323;28;20550;-75
2023/05/15 08:30:40;;;;;;;5.53;5.03;;;;;;;13.01;100.00;95557.56;5058559;28;20021;-74
2023/05/15 08:33:05;;;;;;;5.45;5.00;;;;;;;13.05;100.00;95558.91;5057197;28;20017;-73
2023/05/15 08:35:31;;;;;;;4.40;4.10;;;;;;;13.13;100.00;95556.28;5056687;28;20459;-73
2023/05/15 08:37:57;;;;;;;5.55;5.05;;;;;;;13.13;100.00;95545.69;5056907;28;20498;-74
2023/05/15 08:40:23;;;;;;;4.43;4.13;;;;;;;13.26;100.00;95544.41;5050079;28;20060;-74
2023/05/15 08:43:05;;;;;;;8.45;4.55;;;;;;;13.57;100.00;95547.31;5057453;28;20017;-73
2023/05/15 08:45:31;;;;;;;4.05;3.75;;;;;;;13.98;100.00;95540.38;5055352;28;20501;-73
2023/05/15 08:47:57;;;;;;;4.40;4.10;;;;;;;14.84;100.00;95553.09;5053835;28;20020;-73
2023/05/15 08:50:25;;;;;;;3.95;3.70;;;;;;;14.84;100.00;95538.00;5058409;28;20068;-73
2023/05/15 08:52:52;;;;;;;4.20;3.90;;;;;;;14.42;100.00;95525.88;5057498;28;20102;-74
2023/05/15 08:55:17;;;;;;;4.93;4.38;;;;;;;14.82;100.00;95524.09;5056408;28;20183;-73
2023/05/15 08:57:43;;;;;;;3.65;3.45;;;;;;;15.28;100.00;95522.53;5073012;28;20025;-73
2023/05/15 09:00:13;;;;;;;5.32;3.72;;;;;;;15.34;100.00;95513.88;5058056;28;20025;-74
2023/05/15 09:02:40;;;;;;;3.90;3.58;;;;;;;15.68;100.00;95517.09;5057626;28;20017;-73
2023/05/15 09:05:07;;;;;;;4.05;3.65;;;;;;;15.55;100.00;95515.06;5057076;28;20405;-73
2023/05/15 09:07:33;;;;;;;3.67;3.47;;;;;;;15.13;100.00;95510.03;5057143;28;20386;-73
2023/05/15 09:10:00;;;;;;;4.22;3.75;;;;;;;14.87;100.00;95511.16;5057304;28;20020;-73
2023/05/15 09:12:26;;;;;;;3.80;3.50;;;;;;;14.57;100.00;95524.19;5057538;28;20016;-73
2023/05/15 09:15:08;;;;;;;6.32;3.72;;;;;;;14.35;100.00;95522.25;5057705;28;20401;-73
2023/05/15 09:17:33;;;;;;;3.65;3.42;;;;;;;14.51;100.00;95527.53;5044839;28;20119;-73
2023/05/15 09:19:59;;;;;;;3.70;3.28;;;;;;;14.97;100.00;95521.53;5056737;28;20052;-73
2023/05/15 09:22:24;;;;;;;3.65;3.35;;;;;;;15.99;100.00;95522.34;5044850;28;20070;-73
2023/05/15 09:24:51;;;;;;;3.72;3.47;;;;;;;16.25;100.00;95514.97;5057283;28;20098;-73
2023/05/15 09:27:18;;;;;;;5.13;4.72;;;;;;;16.75;100.00;95500.13;5055961;28;20012;-73
2023/05/15 09:29:44;;;;;;;4.75;4.30;;;;;;;17.26;100.00;95493.19;5056864;28;20103;-73
2023/05/15 09:32:12;;;;;;;4.53;4.22;;;;;;;17.20;100.00;95483.28;5055939;28;20040;-71
2023/05/15 09:34:39;;;;;;;4.20;3.83;;;;;;;16.59;100.00;95479.88;5057152;28;20021;-72
2023/05/15 09:37:07;;;;;;;4.10;3.70;;;;;;;16.99;100.00;95486.75;5056272;28;20021;-72
2023/05/15 09:39:38;;;;;;;3.78;3.47;;;;;;;17.88;100.00;95474.06;5056154;28;20047;-71
2023/05/15 09:42:13;;;;;;;3.72;3.42;;;;;;;17.79;100.00;95468.06;5051104;28;20044;-71
2023/05/15 09:44:42;;;;;;;3.20;3.00;;;;;;;18.02;100.00;95456.38;5060353;28;20021;-71
2023/05/15 09:47:12;;;;;;;4.00;3.65;;;;;;;18.37;100.00;95450.22;5046753;28;20032;-72
2023/05/15 09:49:38;;;;;;;3.08;2.88;;;;;;;18.35;100.00;95446.94;5056533;28;20504;-71
2023/05/15 09:52:08;;;;;;;3.70;3.15;;;;;;;18.67;100.00;95441.94;5056880;28;20029;-71
2023/05/15 09:54:34;;;;;;;3.42;2.83;;;;;;;18.19;100.00;95443.56;5056729;28;20036;-71
2023/05/15 09:57:11;;;;;;;9.32;2.85;;;;;;;17.52;100.00;95440.38;5056972;28;20033;-72
2023/05/15 09:59:46;;;;;;;3.00;2.80;;;;;;;17.16;100.00;95453.59;5056651;28;20039;-71
2023/05/15 10:02:23;;;;;;;3.25;3.05;;;;;;;17.17;100.00;95465.03;5055030;28;20025;-71
2023/05/15 10:04:56;;;;;;;6.53;5.63;;;;;;;17.03;100.00;95461.41;5056650;28;20029;-71
2023/05/15 10:07:31;;;;;;;4.40;3.92;;;;;;;17.08;100.00;95459.00;5056061;28;20033;-73
2023/05/15 10:09:56;;;;;;;3.45;3.17;;;;;;;17.40;100.00;95461.38;5056834;28;20025;-71
2023/05/15 10:12:23;;;;;;;3.53;3.22;;;;;;;17.22;100.00;95459.97;5056310;28;20016;-71
2023/05/15 10:14:50;;;;;;;3.10;2.90;;;;;;;17.41;100.00;95458.53;5056166;28;20434;-73
2023/05/15 10:17:18;;;;;;;4.22;3.92;;;;;;;17.24;100.00;95446.47;5056160;28;20025;-73
2023/05/15 10:19:46;;;;;;;3.47;3.22;;;;;;;16.65;100.00;95441.13;5056721;28;20080;-73
2023/05/15 10:22:14;;;;;;;3.75;3.50;;;;;;;17.25;100.00;95448.97;5056213;28;20028;-73
2023/05/15 10:24:43;;;;;;;3.63;3.42;;;;;;;17.42;100.00;95454.00;5071746;28;20033;-73
2023/05/15 10:27:10;;;;;;;4.22;3.90;;;;;;;17.02;100.00;95449.13;5051764;28;20021;-72
2023/05/15 10:29:36;;;;;;;3.53;3.33;;;;;;;16.83;100.00;95446.03;5054739;28;20088;-73
2023/05/15 10:32:03;;;;;;;3.20;3.00;;;;;;;16.91;100.00;95442.44;5056115;28;20028;-74
2023/05/15 10:34:30;;;;;;;3.45;3.22;;;;;;;16.27;100.00;95435.94;5056203;28;20024;-73
2023/05/15 10:36:56;;;;;;;3.20;3.00;;;;;;;15.71;100.00;95442.47;5049383;28;20075;-72
2023/05/15 10:39:23;;;;;;;2.67;2.55;;;;;;;16.24;100.00;95445.09;5054700;28;20041;-72
2023/05/15 10:41:49;;;;;;;3.10;2.80;;;;;;;17.28;100.00;95442.44;5063100;28;20604;-73
2023/05/15 10:44:16;;;;;;;2.85;2.65;;;;;;;18.59;100.00;95421.63;5052897;28;20024;-74
2023/05/15 10:46:42;;;;;;;2.72;2.53;;;;;;;19.60;100.00;95412.00;5046152;28;20092;-73
2023/05/15 10:49:08;;;;;;;2.70;2.50;;;;;;;20.42;100.00;95396.66;5056147;28;20386;-71
2023/05/15 10:51:36;;;;;;;2.72;2.55;;;;;;;21.13;100.00;95386.91;5055669;28;20063;-70
2023/05/15 10:54:04;;;;;;;2.65;2.45;;;;;;;21.63;100.00;95360.34;5055856;28;20094;-71
2023/05/15 10:56:36;;;;;;;3.10;2.90;;;;;;;21.85;100.00;95347.41;5043184;28;20104;-71
2023/05/15 10:59:09;;;;;;;7.53;5.43;;;;;;;21.78;100.00;95355.50;5055391;28;20172;-71
2023/05/15 11:01:39;;;;;;;3.83;3.20;;;;;;;21.26;100.00;95369.09;5055477;28;20104;-71
2023/05/15 11:04:08;;;;;;;3.30;3.10;;;;;;;22.33;100.00;95357.41;5054938;28;20025;-70
2023/05/15 11:06:35;;;;;;;3.60;3.30;;;;;;;22.98;100.00;95338.22;5055282;28;20347;-72
2023/05/15 11:09:25;;;;;;;3.95;3.55;;;;;;;21.58;100.00;95334.25;5054831;28;20519;-71
2023/05/15 11:11:51;;;;;;;3.20;2.95;;;;;;;20.54;100.00;95338.84;5054917;28;20028;-71
2023/05/15 11:14:19;;;;;;;5.97;3.35;;;;;;;20.61;100.00;95358.34;5055675;28;20032;-71
2023/05/15 11:16:54;;;;;;;2.60;2.50;;;;;;;19.82;100.00;95358.38;5055114;28;20029;-71
2023/05/15 11:19:31;;;;;;;3.28;2.92;;;;;;;20.97;100.00;95368.69;5055768;28;20175;-70
2023/05/15 11:21:57;;;;;;;3.08;2.88;;;;;;;21.77;100.00;95351.19;5054715;28;20025;-73
2023/05/15 11:24:46;;;;;;;3.22;2.70;;;;;;;22.28;100.00;95351.06;5055514;28;20393;-71
2023/05/15 11:27:15;;;;;;;2.80;2.65;;;;;;;22.04;100.00;95334.84;5044285;28;20094;-70